Time;durP1;ratioP1;P1;durP2;ratioP2;P2;SDS_P1;SDS_P2;PMS_P1;PMS_P2;Temp;Humidity;BMP_temperature;BMP_pressure;BME280_temperature;BME280_humidity;BME280_pressure;Samples;Min_cycle;Max_cycle;Signal;HPM_P1;HPM_P2
2022/05/18 00:00:14;;;;;;;3.25;2.40;;;26.00;44.30;;;;;;5141965;27;20064;-43
2022/05/18 00:02:40;;;;;;;4.85;2.63;;;26.00;44.30;;;;;;5142134;27;20056;-42
2022/05/18 00:05:07;;;;;;;4.28;2.50;;;26.00;44.30;;;;;;5140869;27;20016;-41
2022/05/18 00:07:34;;;;;;;4.47;2.80;;;26.00;44.40;;;;;;5140855;27;20034;-40
2022/05/18 00:09:59;;;;;;;5.45;2.80;;;26.00;44.40;;;;;;5140777;27;20011;-39
2022/05/18 00:12:25;;;;;;;4.97;2.80;;;26.00;44.50;;;;;;5139523;27;20401;-42
2022/05/18 00:14:51;;;;;;;5.53;2.88;;;26.00;44.40;;;;;;5141189;27;20039;-42
2022/05/18 00:17:18;;;;;;;5.90;2.75;;;26.00;44.50;;;;;;5140876;27;20015;-45
2022/05/18 00:19:44;;;;;;;4.40;2.72;;;26.00;44.60;;;;;;5141306;27;20014;-42
2022/05/18 00:22:10;;;;;;;4.63;2.80;;;26.00;44.60;;;;;;5140078;27;20073;-40
2022/05/18 00:24:36;;;;;;;6.50;2.97;;;26.00;45.20;;;;;;5138341;27;20034;-41
2022/05/18 00:27:03;;;;;;;4.35;2.72;;;26.00;44.70;;;;;;5140282;27;20016;-40
2022/05/18 00:29:32;;;;;;;4.38;2.60;;;25.90;44.70;;;;;;5140157;27;20094;-40
2022/05/18 00:31:58;;;;;;;5.68;2.90;;;26.00;44.70;;;;;;5140503;27;20021;-39
2022/05/18 00:34:25;;;;;;;4.95;2.50;;;25.90;44.70;;;;;;5140468;27;20385;-41
2022/05/18 00:36:51;;;;;;;3.70;2.40;;;25.90;44.80;;;;;;5141179;27;20012;-40
2022/05/18 00:39:19;;;;;;;4.70;2.88;;;25.90;44.80;;;;;;5139776;27;20060;-43
2022/05/18 00:41:44;;;;;;;4.00;2.83;;;25.90;44.80;;;;;;5140216;27;20084;-40
2022/05/18 00:44:11;;;;;;;5.28;2.78;;;26.00;44.90;;;;;;5140894;27;20015;-42
2022/05/18 00:46:38;;;;;;;4.15;2.83;;;25.90;44.80;;;;;;5141179;27;20015;-41
2022/05/18 00:49:06;;;;;;;4.63;2.92;;;25.90;44.90;;;;;;5140685;27;20007;-44
2022/05/18 00:51:47;;;;;;;4.38;2.70;;;25.90;44.90;;;;;;5141077;27;20034;-45
2022/05/18 00:54:19;;;;;;;4.45;2.80;;;25.90;44.90;;;;;;5139606;27;20015;-46
2022/05/18 00:56:52;;;;;;;4.45;2.90;;;25.90;44.90;;;;;;5139853;27;20015;-41
2022/05/18 00:59:27;;;;;;;5.03;2.88;;;25.90;45.00;;;;;;5139592;27;20042;-43
2022/05/18 01:01:55;;;;;;;4.50;2.88;;;25.90;45.00;;;;;;5139000;28;20016;-43
2022/05/18 01:04:21;;;;;;;4.13;2.58;;;25.90;45.00;;;;;;5139482;27;20003;-44
2022/05/18 01:07:00;;;;;;;4.32;2.60;;;25.90;45.00;;;;;;5138480;28;20032;-40
2022/05/18 01:09:36;;;;;;;4.32;2.78;;;25.90;45.00;;;;;;5138469;28;20037;-41
2022/05/18 01:12:02;;;;;;;5.80;2.90;;;25.90;45.00;;;;;;5139433;27;20019;-41
2022/05/18 01:14:45;;;;;;;3.78;2.70;;;25.90;45.00;;;;;;5139351;27;20098;-39
2022/05/18 01:17:15;;;;;;;5.00;2.80;;;25.90;45.10;;;;;;5137467;28;20011;-42
2022/05/18 01:19:46;;;;;;;3.63;2.60;;;25.90;45.10;;;;;;5138423;28;20011;-40
2022/05/18 01:22:31;;;;;;;5.07;2.50;;;25.90;45.00;;;;;;5121515;28;20035;-40
2022/05/18 01:25:06;;;;;;;5.30;2.67;;;25.90;45.10;;;;;;5140086;27;20023;-42
2022/05/18 01:27:32;;;;;;;3.45;2.75;;;25.90;45.60;;;;;;5138762;28;20501;-40
2022/05/18 01:29:58;;;;;;;5.93;3.05;;;25.90;45.10;;;;;;5139292;28;20019;-41
2022/05/18 01:32:24;;;;;;;5.20;2.80;;;25.90;45.10;;;;;;5139423;27;20072;-40
2022/05/18 01:34:50;;;;;;;5.25;2.95;;;25.90;45.20;;;;;;5138803;28;20091;-40
2022/05/18 01:37:16;;;;;;;4.53;2.97;;;25.90;45.20;;;;;;5140034;28;20020;-40
2022/05/18 01:39:58;;;;;;;5.25;3.30;;;25.90;45.30;;;;;;5139135;28;20018;-39
2022/05/18 01:42:33;;;;;;;5.72;3.15;;;25.90;45.40;;;;;;5139466;27;20011;-39
2022/05/18 01:44:59;;;;;;;5.60;3.10;;;25.80;45.20;;;;;;5140430;27;20015;-41
2022/05/18 01:47:30;;;;;;;4.05;2.75;;;25.80;45.20;;;;;;5140233;28;20026;-40
2022/05/18 01:49:56;;;;;;;5.32;3.15;;;25.80;45.20;;;;;;5143807;27;20008;-40
2022/05/18 01:52:23;;;;;;;5.97;3.03;;;25.80;45.20;;;;;;5142841;27;20011;-41
2022/05/18 01:54:50;;;;;;;4.80;3.03;;;25.80;45.20;;;;;;5143853;27;20030;-40
2022/05/18 01:57:17;;;;;;;6.82;3.20;;;25.80;45.30;;;;;;5143397;27;20090;-41
2022/05/18 01:59:43;;;;;;;5.85;2.92;;;25.90;45.30;;;;;;5143365;27;20011;-42
2022/05/18 02:02:12;;;;;;;5.53;2.80;;;25.80;45.20;;;;;;5144293;27;20019;-38
2022/05/18 02:04:43;;;;;;;5.60;2.90;;;25.80;45.20;;;;;;5144204;27;20027;-42
2022/05/18 02:07:09;;;;;;;4.07;2.92;;;25.90;45.20;;;;;;5144442;27;20011;-40
2022/05/18 02:09:36;;;;;;;4.05;2.90;;;25.80;45.20;;;;;;5144667;27;20027;-42
2022/05/18 02:12:02;;;;;;;4.30;2.88;;;25.80;45.20;;;;;;5145776;27;20036;-40
2022/05/18 02:14:28;;;;;;;4.57;2.85;;;25.80;45.20;;;;;;5143710;27;20027;-41
2022/05/18 02:16:54;;;;;;;5.95;3.10;;;25.80;45.20;;;;;;5145071;27;20012;-40
2022/05/18 02:19:21;;;;;;;4.82;2.75;;;25.80;45.10;;;;;;5145056;27;20056;-42
2022/05/18 02:21:47;;;;;;;5.07;3.38;;;25.80;45.20;;;;;;5145667;27;20089;-40
2022/05/18 02:24:13;;;;;;;4.85;2.78;;;25.80;45.10;;;;;;5145462;27;20053;-41
2022/05/18 02:26:39;;;;;;;4.57;2.83;;;25.80;45.20;;;;;;5144273;27;20039;-41
2022/05/18 02:29:05;;;;;;;5.07;2.88;;;25.80;45.20;;;;;;5143510;27;20031;-43
2022/05/18 02:31:31;;;;;;;3.97;2.63;;;25.80;45.20;;;;;;5145106;27;20023;-39
2022/05/18 02:33:58;;;;;;;5.57;2.85;;;25.90;45.20;;;;;;5144974;27;20099;-40
2022/05/18 02:36:24;;;;;;;5.53;3.15;;;25.80;45.20;;;;;;5144396;27;20485;-42
2022/05/18 02:38:52;;;;;;;4.82;2.70;;;25.80;45.10;;;;;;5144253;27;20007;-40
2022/05/18 02:41:18;;;;;;;4.63;2.95;;;25.80;45.10;;;;;;5144137;27;20033;-40
2022/05/18 02:43:44;;;;;;;5.28;3.00;;;25.80;45.10;;;;;;5144187;27;20011;-44
2022/05/18 02:46:18;;;;;;;4.28;2.70;;;25.80;45.10;;;;;;5144194;27;20030;-41
2022/05/18 02:48:44;;;;;;;5.55;2.63;;;25.80;45.10;;;;;;5145131;27;20524;-41
2022/05/18 02:51:10;;;;;;;4.70;3.10;;;25.80;45.10;;;;;;5143312;27;20019;-40
2022/05/18 02:53:37;;;;;;;3.65;2.88;;;25.80;45.20;;;;;;5144542;27;20064;-38
2022/05/18 02:56:06;;;;;;;5.35;3.00;;;25.80;45.20;;;;;;5144412;27;20019;-40
2022/05/18 02:58:40;;;;;;;4.93;2.88;;;25.80;45.10;;;;;;5144821;27;20420;-39
2022/05/18 03:01:07;;;;;;;6.57;3.45;;;25.80;45.10;;;;;;5143215;27;20012;-41
2022/05/18 03:03:36;;;;;;;4.57;2.72;;;25.80;45.10;;;;;;5125932;27;20007;-41
2022/05/18 03:06:04;;;;;;;4.72;2.72;;;25.80;45.10;;;;;;5144694;27;20030;-41
2022/05/18 03:08:33;;;;;;;6.55;2.75;;;25.80;45.10;;;;;;5143347;27;20011;-42
2022/05/18 03:11:00;;;;;;;4.97;2.60;;;25.80;45.10;;;;;;5143137;27;20012;-39
2022/05/18 03:13:27;;;;;;;4.63;2.80;;;25.80;45.10;;;;;;5143159;27;20019;-39
2022/05/18 03:15:52;;;;;;;5.50;2.97;;;25.80;45.10;;;;;;5142939;27;20027;-40
2022/05/18 03:18:19;;;;;;;5.72;2.85;;;25.80;45.10;;;;;;5144213;27;20028;-42
2022/05/18 03:23:35;;;;;;;6.13;2.88;;;25.80;45.10;;;;;;5143895;27;20045;-42
2022/05/18 03:26:08;;;;;;;5.00;3.17;;;25.80;45.10;;;;;;5144361;27;20035;-39
2022/05/18 03:28:34;;;;;;;4.30;2.78;;;25.80;45.10;;;;;;5144233;27;20019;-42
2022/05/18 03:30:59;;;;;;;5.18;3.25;;;25.80;45.10;;;;;;5143972;27;20012;-39
2022/05/18 03:33:27;;;;;;;4.30;2.90;;;25.70;45.10;;;;;;5143991;27;20031;-40
2022/05/18 03:35:53;;;;;;;4.38;2.92;;;25.70;45.10;;;;;;5144896;27;20027;-44
2022/05/18 03:38:19;;;;;;;4.63;3.00;;;25.70;45.10;;;;;;5144878;27;20080;-43
2022/05/18 03:40:45;;;;;;;4.82;2.65;;;25.80;45.20;;;;;;5144900;27;20059;-42
2022/05/18 03:43:12;;;;;;;4.50;2.97;;;25.80;45.10;;;;;;5143509;27;20071;-41
2022/05/18 03:45:38;;;;;;;5.25;2.90;;;25.80;45.10;;;;;;5143173;27;20023;-40
2022/05/18 03:48:05;;;;;;;6.43;3.00;;;25.70;45.00;;;;;;5143754;27;20039;-41
2022/05/18 03:50:32;;;;;;;7.05;2.83;;;25.70;45.00;;;;;;5142041;27;20023;-43
2022/05/18 03:52:58;;;;;;;3.67;2.80;;;25.70;45.00;;;;;;5141458;27;20024;-42
2022/05/18 03:55:24;;;;;;;4.32;3.03;;;25.70;44.90;;;;;;5142985;27;20023;-45
2022/05/18 03:57:51;;;;;;;5.28;3.00;;;25.80;45.00;;;;;;5144185;27;20028;-39
2022/05/18 04:00:16;;;;;;;4.43;2.85;;;25.70;44.90;;;;;;5143500;27;20488;-39
2022/05/18 04:02:43;;;;;;;5.35;2.78;;;25.80;45.00;;;;;;5143669;27;20019;-40
2022/05/18 04:05:09;;;;;;;4.43;2.67;;;25.70;44.90;;;;;;5143629;27;20096;-43
2022/05/18 04:07:36;;;;;;;6.40;2.80;;;25.80;44.90;;;;;;5143152;27;20019;-40
2022/05/18 04:10:02;;;;;;;4.85;2.67;;;25.80;44.90;;;;;;5142742;27;20053;-42
2022/05/18 04:12:28;;;;;;;4.75;2.97;;;25.70;44.90;;;;;;5141785;27;20019;-40
2022/05/18 04:14:55;;;;;;;3.53;2.65;;;25.70;44.80;;;;;;5140913;27;20027;-42
2022/05/18 04:17:22;;;;;;;3.67;2.60;;;25.80;44.90;;;;;;5140670;27;20034;-41
2022/05/18 04:19:50;;;;;;;4.47;2.90;;;25.70;44.80;;;;;;5140117;27;20025;-40
2022/05/18 04:22:16;;;;;;;2.90;2.50;;;25.70;44.80;;;;;;5141483;27;20034;-39
2022/05/18 04:24:43;;;;;;;5.65;2.80;;;25.70;44.80;;;;;;5141108;27;20068;-47
2022/05/18 04:27:10;;;;;;;4.85;2.65;;;25.70;44.80;;;;;;5140053;27;20019;-41
2022/05/18 04:29:37;;;;;;;3.85;2.70;;;25.70;44.80;;;;;;5140278;27;20019;-43
2022/05/18 04:32:04;;;;;;;4.88;3.00;;;25.70;44.80;;;;;;5140457;27;20107;-41
2022/05/18 04:34:30;;;;;;;4.85;3.03;;;25.70;44.70;;;;;;5138540;27;20011;-40
2022/05/18 04:36:56;;;;;;;4.15;2.58;;;25.70;44.70;;;;;;5140259;27;20030;-40
2022/05/18 04:39:23;;;;;;;3.53;2.47;;;25.70;44.70;;;;;;5139705;27;20015;-39
2022/05/18 04:41:48;;;;;;;3.53;2.47;;;25.70;44.70;;;;;;5139398;27;20045;-41
2022/05/18 04:44:21;;;;;;;5.80;2.80;;;25.70;44.70;;;;;;5137617;27;20016;-38
2022/05/18 04:46:47;;;;;;;5.32;2.78;;;25.70;44.70;;;;;;5139687;27;20023;-41
2022/05/18 04:49:13;;;;;;;4.97;3.00;;;25.70;44.60;;;;;;5139893;27;20040;-44
2022/05/18 04:51:39;;;;;;;4.45;2.97;;;25.70;44.60;;;;;;5140342;27;20453;-41
2022/05/18 04:54:06;;;;;;;4.38;2.65;;;25.70;44.70;;;;;;5140149;27;20470;-43
2022/05/18 04:56:32;;;;;;;4.80;2.60;;;25.70;44.70;;;;;;5139625;27;20042;-42
2022/05/18 04:58:58;;;;;;;4.93;2.75;;;25.70;44.70;;;;;;5139967;27;20019;-39
2022/05/18 05:01:26;;;;;;;3.95;2.72;;;25.70;44.70;;;;;;5139134;27;20015;-43
2022/05/18 05:03:51;;;;;;;3.65;2.58;;;25.70;44.70;;;;;;5138822;27;20072;-40
2022/05/18 05:06:18;;;;;;;3.80;2.42;;;25.70;44.70;;;;;;5138822;28;20045;-42
2022/05/18 05:08:44;;;;;;;3.85;2.58;;;25.70;44.80;;;;;;5136212;28;20020;-40
2022/05/18 05:11:10;;;;;;;3.85;2.75;;;25.70;44.80;;;;;;5138866;27;20016;-43
2022/05/18 05:13:37;;;;;;;4.50;2.58;;;25.70;44.80;;;;;;5139156;27;20019;-41
2022/05/18 05:16:05;;;;;;;3.83;2.70;;;25.70;44.90;;;;;;5139550;27;20023;-42
2022/05/18 05:18:31;;;;;;;3.88;2.47;;;25.70;44.90;;;;;;5140645;27;20007;-40
2022/05/18 05:20:57;;;;;;;4.85;2.95;;;25.70;45.00;;;;;;5140321;27;20043;-43
2022/05/18 05:23:24;;;;;;;3.10;2.38;;;25.70;45.00;;;;;;5140438;27;20053;-40
2022/05/18 05:25:53;;;;;;;3.03;2.40;;;25.70;45.10;;;;;;5144287;27;20015;-42
2022/05/18 05:28:19;;;;;;;4.82;2.65;;;25.70;45.10;;;;;;5142584;27;20015;-42
2022/05/18 05:30:45;;;;;;;5.78;2.60;;;25.70;45.20;;;;;;5141777;27;20019;-43
2022/05/18 05:33:11;;;;;;;3.85;2.63;;;25.80;45.30;;;;;;5140923;27;20565;-38
2022/05/18 05:35:41;;;;;;;3.53;2.38;;;25.80;45.20;;;;;;5141455;27;20046;-39
2022/05/18 05:38:09;;;;;;;3.53;2.40;;;25.80;45.30;;;;;;5140638;27;20008;-39
2022/05/18 05:40:36;;;;;;;5.25;2.45;;;25.90;45.30;;;;;;5140804;27;20010;-40
2022/05/18 05:43:09;;;;;;;3.97;2.60;;;26.00;45.10;;;;;;5140335;27;20031;-42
2022/05/18 05:45:35;;;;;;;4.35;2.40;;;26.10;44.90;;;;;;5139539;27;20019;-41
2022/05/18 05:48:01;;;;;;;4.35;2.58;;;26.30;44.60;;;;;;5139789;27;20023;-39
2022/05/18 05:50:27;;;;;;;3.75;2.40;;;26.50;44.30;;;;;;5121242;27;20389;-38
2022/05/18 05:52:53;;;;;;;3.75;2.30;;;26.70;44.10;;;;;;5137464;27;20023;-42
2022/05/18 05:55:19;;;;;;;6.35;2.40;;;26.90;43.80;;;;;;5120451;27;20023;-41
2022/05/18 05:57:44;;;;;;;3.97;2.40;;;27.00;43.60;;;;;;5137826;27;20414;-39
2022/05/18 06:00:11;;;;;;;3.00;2.15;;;27.20;43.90;;;;;;5136637;27;20477;-41
2022/05/18 06:02:37;;;;;;;3.20;2.38;;;27.30;43.00;;;;;;5138796;27;20042;-43
2022/05/18 06:05:05;;;;;;;4.05;2.40;;;27.50;43.40;;;;;;5138376;27;20019;-41
2022/05/18 06:07:31;;;;;;;3.58;2.20;;;27.60;42.60;;;;;;5121491;27;20060;-41
2022/05/18 06:09:57;;;;;;;4.10;2.22;;;27.70;42.30;;;;;;5139652;27;20023;-39
2022/05/18 06:12:25;;;;;;;3.90;2.25;;;27.90;42.20;;;;;;5137850;27;20098;-39
2022/05/18 06:14:51;;;;;;;3.03;1.92;;;28.00;42.10;;;;;;5137373;27;20023;-38
2022/05/18 06:17:19;;;;;;;4.95;2.20;;;27.90;42.20;;;;;;5137464;27;20068;-39
2022/05/18 06:19:46;;;;;;;6.22;2.20;;;27.60;44.10;;;;;;5134301;27;20098;-44
2022/05/18 06:22:11;;;;;;;12.40;2.70;;;27.40;44.70;;;;;;5096729;27;20051;-39
2022/05/18 06:24:39;;;;;;;33.13;4.22;;;27.10;47.80;;;;;;5134637;27;20346;-37
2022/05/18 06:27:05;;;;;;;19.05;3.47;;;26.80;50.70;;;;;;5134817;27;20031;-37
2022/05/18 06:29:30;;;;;;;15.00;2.80;;;26.40;51.40;;;;;;5135048;27;20038;-37
2022/05/18 06:31:56;;;;;;;15.18;3.20;;;25.70;52.80;;;;;;5134774;27;20022;-37
2022/05/18 06:34:22;;;;;;;15.75;2.55;;;25.40;51.70;;;;;;5136663;27;20403;-37
2022/05/18 06:36:49;;;;;;;8.45;2.30;;;25.30;53.20;;;;;;5136906;27;20090;-37
2022/05/18 06:39:18;;;;;;;11.20;2.92;;;25.40;52.70;;;;;;5136649;27;20095;-39
2022/05/18 06:41:45;;;;;;;21.45;2.63;;;25.50;51.40;;;;;;5136832;27;20047;-38
2022/05/18 06:44:10;;;;;;;4.50;1.75;;;25.30;50.80;;;;;;5118165;27;20031;-36
2022/05/18 06:46:38;;;;;;;7.45;2.70;;;25.10;50.70;;;;;;5135641;27;20038;-39
2022/05/18 06:49:10;;;;;;;6.03;1.80;;;25.10;50.60;;;;;;5136915;27;20007;-40
2022/05/18 06:51:38;;;;;;;7.05;1.95;;;25.00;50.20;;;;;;5137043;27;20034;-40
2022/05/18 06:54:04;;;;;;;5.63;1.63;;;25.00;49.60;;;;;;5135805;27;20022;-40
2022/05/18 06:56:31;;;;;;;5.75;1.90;;;25.10;48.80;;;;;;5136655;27;20023;-41
2022/05/18 06:58:57;;;;;;;4.63;1.67;;;25.30;49.90;;;;;;5134619;27;20011;-39
2022/05/18 07:01:23;;;;;;;8.25;1.73;;;25.50;47.30;;;;;;5135648;27;20016;-39
2022/05/18 07:03:49;;;;;;;5.55;2.15;;;25.40;48.20;;;;;;5134774;27;20100;-38
2022/05/18 07:06:15;;;;;;;4.20;1.52;;;25.20;48.10;;;;;;5134820;27;20050;-38
2022/05/18 07:08:41;;;;;;;5.05;1.55;;;25.00;47.80;;;;;;5135971;27;20022;-37
2022/05/18 07:11:07;;;;;;;4.38;1.35;;;25.00;49.10;;;;;;5135474;27;20015;-38
2022/05/18 07:13:35;;;;;;;18.25;2.28;;;25.40;47.20;;;;;;5133352;27;20077;-37
2022/05/18 07:16:04;;;;;;;7.32;1.50;;;25.40;47.00;;;;;;5134378;27;20062;-37
2022/05/18 07:18:31;;;;;;;10.55;1.60;;;26.10;46.10;;;;;;5134988;27;20039;-38
2022/05/18 07:20:57;;;;;;;5.22;1.90;;;26.60;44.90;;;;;;5116502;27;20504;-39
2022/05/18 07:23:24;;;;;;;6.10;1.70;;;27.10;43.10;;;;;;5135696;27;20048;-37
2022/05/18 07:25:51;;;;;;;6.70;1.70;;;27.50;42.70;;;;;;5136528;27;20021;-37
2022/05/18 07:28:16;;;;;;;5.20;1.40;;;27.80;41.80;;;;;;5117568;27;20015;-37
2022/05/18 07:30:42;;;;;;;7.50;1.50;;;28.10;41.00;;;;;;5134636;27;20469;-37
2022/05/18 07:33:08;;;;;;;5.18;1.20;;;28.20;40.00;;;;;;5135967;27;20023;-37
2022/05/18 07:35:34;;;;;;;5.90;1.20;;;28.30;40.10;;;;;;5135748;27;20019;-38
2022/05/18 07:38:00;;;;;;;5.82;1.48;;;28.40;39.80;;;;;;5136414;27;20011;-40
2022/05/18 07:40:26;;;;;;;5.00;1.20;;;28.50;39.50;;;;;;5137198;27;20033;-39
2022/05/18 07:42:56;;;;;;;5.45;1.50;;;28.60;38.80;;;;;;5135889;27;20417;-38
2022/05/18 07:45:25;;;;;;;5.00;1.30;;;28.60;38.40;;;;;;5134977;27;20054;-38
2022/05/18 07:47:53;;;;;;;3.78;1.38;;;28.60;38.40;;;;;;5134381;27;20019;-37
2022/05/18 07:50:23;;;;;;;10.57;1.40;;;28.70;38.40;;;;;;5135774;27;20078;-37
2022/05/18 07:52:49;;;;;;;3.03;1.10;;;28.80;37.40;;;;;;5135505;27;20015;-37
2022/05/18 07:55:14;;;;;;;4.90;1.20;;;28.90;37.90;;;;;;5135743;27;20023;-37
2022/05/18 07:57:40;;;;;;;5.40;1.33;;;29.00;37.30;;;;;;5135651;27;20083;-40
2022/05/18 08:00:08;;;;;;;4.28;1.20;;;29.10;36.90;;;;;;5133422;27;20044;-37
2022/05/18 08:02:34;;;;;;;4.28;1.30;;;29.10;36.70;;;;;;5133676;27;20023;-38
2022/05/18 08:05:00;;;;;;;2.88;1.38;;;29.10;36.30;;;;;;5134126;27;20052;-39
2022/05/18 08:07:26;;;;;;;4.90;1.50;;;29.00;36.20;;;;;;5133923;27;20020;-40
2022/05/18 08:15:20;;;;;;;8.95;1.50;;;27.80;37.50;;;;;;5135022;27;20429;-38
2022/05/18 08:17:47;;;;;;;12.20;1.85;;;26.70;40.00;;;;;;5135384;27;20023;-40
2022/05/18 08:20:15;;;;;;;17.63;2.58;;;26.70;40.00;;;;;;5131916;27;20016;-38
2022/05/18 08:22:41;;;;;;;16.55;2.20;;;26.50;40.60;;;;;;5134371;27;20043;-41
2022/05/18 08:25:08;;;;;;;23.38;3.13;;;26.30;41.20;;;;;;5133617;27;20103;-39
2022/05/18 08:27:35;;;;;;;14.55;2.20;;;26.10;42.20;;;;;;5134247;27;20015;-39
2022/05/18 08:30:05;;;;;;;10.98;2.63;;;26.70;41.60;;;;;;5133627;27;20453;-39
2022/05/18 08:32:31;;;;;;;8.80;1.65;;;27.10;40.90;;;;;;5133593;27;20019;-40
2022/05/18 08:34:57;;;;;;;8.60;1.80;;;27.30;40.20;;;;;;5133495;27;20023;-38
2022/05/18 08:37:24;;;;;;;4.07;1.70;;;27.50;39.80;;;;;;5133918;27;20023;-38
2022/05/18 08:39:50;;;;;;;7.38;1.55;;;27.50;38.00;;;;;;5132307;27;20011;-40
2022/05/18 08:42:18;;;;;;;7.47;1.40;;;27.50;39.10;;;;;;5132164;27;20032;-41
2022/05/18 08:44:44;;;;;;;9.32;1.63;;;27.50;39.00;;;;;;5115214;27;20038;-38
2022/05/18 08:47:35;;;;;;;3.70;1.20;;;27.50;38.90;;;;;;5132572;27;20023;-41
2022/05/18 08:50:03;;;;;;;5.82;1.35;;;27.80;38.60;;;;;;5132132;27;20037;-38
2022/05/18 08:52:47;;;;;;;6.85;1.17;;;28.30;37.40;;;;;;5133499;27;20015;-38
2022/05/18 08:55:41;;;;;;;3.42;1.05;;;28.50;37.50;;;;;;5133249;27;20076;-39
2022/05/18 08:58:22;;;;;;;4.65;1.20;;;28.60;36.90;;;;;;5133230;27;20007;-37
2022/05/18 09:00:58;;;;;;;9.20;1.10;;;28.30;37.80;;;;;;5133407;27;20098;-37
2022/05/18 09:03:32;;;;;;;5.30;1.45;;;27.90;38.00;;;;;;5115386;28;20068;-41
2022/05/18 09:06:22;;;;;;;3.83;1.30;;;27.90;38.40;;;;;;5132889;27;20038;-39
2022/05/18 09:10:12;;;;;;;4.22;1.20;;;27.80;38.00;;;;;;5130705;28;20027;-40
2022/05/18 09:11:38;;;;;;;4.78;0.98;;;27.90;37.70;;;;;;5132135;28;20055;-40
2022/05/18 09:14:12;;;;;;;6.25;0.98;;;27.80;37.60;;;;;;5132405;28;20035;-38
2022/05/18 09:16:42;;;;;;;7.80;1.20;;;27.70;37.80;;;;;;5132817;28;20095;-41
2022/05/18 09:19:40;;;;;;;7.55;1.10;;;27.80;37.50;;;;;;5132941;27;20030;-41
2022/05/18 09:22:10;;;;;;;8.18;1.52;;;28.30;36.50;;;;;;5062485;27;20130;-39
2022/05/18 09:24:49;;;;;;;5.97;1.10;;;28.70;35.90;;;;;;5134251;27;20068;-43
2022/05/18 09:27:17;;;;;;;4.83;0.90;;;29.20;35.30;;;;;;5134362;27;20116;-39
2022/05/18 09:29:49;;;;;;;4.78;1.20;;;29.40;34.70;;;;;;5134283;27;20020;-39
2022/05/18 09:32:38;;;;;;;7.63;1.20;;;29.60;34.40;;;;;;5134656;28;20020;-39
2022/05/18 09:35:22;;;;;;;6.23;1.00;;;29.90;34.10;;;;;;5133303;28;20019;-40
2022/05/18 09:38:11;;;;;;;5.85;1.00;;;30.00;33.80;;;;;;5133593;28;20023;-41
2022/05/18 09:40:47;;;;;;;5.65;0.90;;;30.20;33.70;;;;;;5133284;28;20062;-43
2022/05/18 09:43:45;;;;;;;7.47;1.73;;;30.20;33.50;;;;;;5133538;27;20003;-41
2022/05/18 09:46:12;;;;;;;4.30;0.98;;;30.20;33.40;;;;;;5133325;27;20022;-40
2022/05/18 09:48:46;;;;;;;5.38;1.00;;;30.30;33.30;;;;;;5133070;28;20172;-40
2022/05/18 09:51:12;;;;;;;6.65;1.42;;;30.30;33.30;;;;;;5133805;28;20015;-39
2022/05/18 09:53:41;;;;;;;7.32;1.05;;;30.30;33.30;;;;;;5114640;28;20510;-39
2022/05/18 09:56:24;;;;;;;2.40;1.00;;;30.20;33.40;;;;;;5131555;28;20015;-39
2022/05/18 09:58:50;;;;;;;5.68;1.10;;;30.20;33.40;;;;;;5115280;28;20099;-39
2022/05/18 10:09:46;;;;;;;4.55;1.20;;;30.30;33.40;;;;;;5134545;27;20034;-40
2022/05/18 10:12:29;;;;;;;4.43;0.90;;;30.30;33.40;;;;;;5137395;27;20034;-41
2022/05/18 10:15:04;;;;;;;3.95;0.82;;;30.30;33.40;;;;;;5138861;27;20023;-40
2022/05/18 10:17:37;;;;;;;4.40;0.93;;;30.30;33.50;;;;;;5121769;27;20100;-42
2022/05/18 10:20:30;;;;;;;3.97;1.00;;;30.30;33.40;;;;;;5107479;27;20015;-41
2022/05/18 10:22:56;;;;;;;2.08;0.88;;;30.30;33.50;;;;;;5131124;27;20043;-42
2022/05/18 10:25:35;;;;;;;4.13;0.82;;;30.30;33.50;;;;;;5139805;27;20026;-42
2022/05/18 10:28:29;;;;;;;4.43;0.77;;;30.30;33.50;;;;;;5139347;27;20015;-42
2022/05/18 10:31:04;;;;;;;3.97;1.02;;;30.20;33.50;;;;;;5139433;27;20062;-43
2022/05/18 10:33:37;;;;;;;2.97;0.80;;;30.20;33.60;;;;;;5140895;27;20030;-42
2022/05/18 10:36:11;;;;;;;4.35;0.90;;;30.10;33.70;;;;;;5140836;27;20047;-41
2022/05/18 10:38:38;;;;;;;3.55;1.08;;;30.10;33.80;;;;;;5139958;27;20007;-41
2022/05/18 10:41:04;;;;;;;2.33;0.70;;;30.10;33.90;;;;;;5139907;27;20012;-45
2022/05/18 10:43:36;;;;;;;3.85;0.98;;;30.00;33.90;;;;;;5140154;27;20026;-40
2022/05/18 10:46:16;;;;;;;4.45;0.90;;;30.00;34.00;;;;;;5139139;27;20022;-41
2022/05/18 10:48:43;;;;;;;5.20;1.02;;;29.90;34.20;;;;;;5139421;27;20038;-41
2022/05/18 10:51:11;;;;;;;2.00;0.60;;;29.90;34.30;;;;;;5138564;27;20056;-43
2022/05/18 10:53:39;;;;;;;3.75;0.90;;;29.90;34.40;;;;;;5138328;27;20024;-40
2022/05/18 10:56:13;;;;;;;4.70;0.80;;;29.80;34.50;;;;;;5140391;27;20012;-43
2022/05/18 10:58:47;;;;;;;4.30;1.30;;;29.70;34.50;;;;;;5140359;27;20018;-43
2022/05/18 11:01:24;;;;;;;2.90;0.80;;;29.70;34.70;;;;;;5140438;27;20006;-43
2022/05/18 11:03:58;;;;;;;4.03;1.10;;;29.60;34.70;;;;;;5139116;27;20020;-40
2022/05/18 11:06:26;;;;;;;5.32;0.88;;;29.60;34.70;;;;;;5139798;27;20021;-41
2022/05/18 11:08:52;;;;;;;5.13;0.85;;;29.60;34.80;;;;;;5137725;27;20490;-41
2022/05/18 11:11:44;;;;;;;2.45;0.85;;;29.60;34.80;;;;;;5138889;27;20019;-40
2022/05/18 11:14:38;;;;;;;3.78;1.00;;;29.60;34.90;;;;;;5138400;27;20470;-39
2022/05/18 11:17:03;;;;;;;3.72;0.80;;;29.60;35.00;;;;;;5127086;27;20088;-42
2022/05/18 11:19:37;;;;;;;1.75;0.80;;;29.60;35.10;;;;;;5138452;27;20012;-40
2022/05/18 11:22:11;;;;;;;2.72;0.75;;;29.50;35.10;;;;;;5137314;27;20039;-40
2022/05/18 11:25:12;;;;;;;4.38;0.85;;;29.40;35.20;;;;;;5137314;27;20029;-42
2022/05/18 11:27:49;;;;;;;5.72;0.95;;;29.40;35.40;;;;;;5137169;27;20007;-40
2022/05/18 11:30:18;;;;;;;4.90;0.80;;;29.30;35.40;;;;;;5137757;27;20017;-41
2022/05/18 11:33:07;;;;;;;4.93;0.73;;;29.30;35.60;;;;;;5136944;27;20068;-42
2022/05/18 11:35:47;;;;;;;3.35;0.80;;;29.20;35.60;;;;;;5137814;27;20031;-41
2022/05/18 11:38:32;;;;;;;2.28;0.60;;;29.10;35.70;;;;;;5138246;27;20362;-40
2022/05/18 11:41:05;;;;;;;3.47;0.70;;;29.10;35.70;;;;;;5138349;27;20015;-41
2022/05/18 11:43:40;;;;;;;5.20;1.00;;;29.00;35.80;;;;;;5137093;27;20034;-41
2022/05/18 11:46:44;;;;;;;2.55;0.75;;;29.00;36.00;;;;;;5136316;27;20016;-40
2022/05/18 11:49:23;;;;;;;2.65;0.60;;;28.90;36.00;;;;;;5138313;27;20021;-40
2022/05/18 11:52:01;;;;;;;3.75;0.90;;;28.90;36.10;;;;;;5137668;27;20023;-40
2022/05/18 11:54:45;;;;;;;4.25;0.68;;;28.90;36.20;;;;;;5136327;27;20045;-39
2022/05/18 11:57:41;;;;;;;3.75;0.70;;;28.80;36.30;;;;;;5137764;27;20026;-40
2022/05/18 12:00:12;;;;;;;2.38;0.68;;;28.80;36.50;;;;;;5136941;27;20011;-39
2022/05/18 12:02:58;;;;;;;2.17;0.65;;;28.80;36.60;;;;;;5137947;27;20015;-42
2022/05/18 12:05:30;;;;;;;2.00;0.55;;;28.70;36.60;;;;;;5137679;27;20088;-41
2022/05/18 12:08:14;;;;;;;3.00;0.65;;;28.70;36.60;;;;;;5137748;27;20112;-39
2022/05/18 12:10:43;;;;;;;3.08;0.70;;;28.70;36.70;;;;;;5137175;27;20030;-39
2022/05/18 12:13:36;;;;;;;2.60;0.70;;;28.70;36.80;;;;;;5136348;27;20015;-42
2022/05/18 12:16:39;;;;;;;2.15;0.60;;;28.70;36.90;;;;;;5136103;27;20031;-40
2022/05/18 12:19:09;;;;;;;3.55;0.90;;;28.60;36.90;;;;;;5135616;27;20466;-40
2022/05/18 12:21:45;;;;;;;2.95;0.90;;;28.60;37.00;;;;;;5135277;27;20035;-39
2022/05/18 12:24:11;;;;;;;3.20;0.77;;;28.60;37.00;;;;;;5118716;27;20374;-40
2022/05/18 12:26:40;;;;;;;2.22;0.80;;;28.60;37.10;;;;;;5135797;27;20019;-40
2022/05/18 12:29:06;;;;;;;2.55;0.70;;;28.60;37.20;;;;;;5135343;27;20015;-41
2022/05/18 12:31:33;;;;;;;4.55;1.17;;;28.50;37.20;;;;;;5135795;27;20113;-40
2022/05/18 12:34:15;;;;;;;3.72;0.70;;;28.50;37.20;;;;;;5134160;27;20022;-40
2022/05/18 12:36:45;;;;;;;1.58;0.60;;;28.50;37.40;;;;;;5134654;27;20481;-42
2022/05/18 12:39:18;;;;;;;3.63;0.90;;;28.40;37.40;;;;;;5136279;27;20039;-39
2022/05/18 12:41:49;;;;;;;1.67;0.65;;;28.40;37.40;;;;;;5135902;27;20030;-43
2022/05/18 12:44:37;;;;;;;2.88;1.00;;;28.40;37.50;;;;;;5135159;27;20091;-41
2022/05/18 12:47:09;;;;;;;1.80;0.70;;;28.40;37.60;;;;;;5135383;27;20056;-42
2022/05/18 12:49:40;;;;;;;1.92;0.70;;;28.30;37.70;;;;;;5135150;27;20090;-41
2022/05/18 12:52:35;;;;;;;3.17;0.75;;;28.30;37.80;;;;;;5135356;27;20007;-42
2022/05/18 12:55:12;;;;;;;3.33;1.13;;;28.30;37.90;;;;;;5133729;27;20080;-39
2022/05/18 12:57:41;;;;;;;1.83;0.73;;;28.30;37.90;;;;;;5134183;27;20042;-44
2022/05/18 13:00:25;;;;;;;2.72;0.70;;;28.30;37.90;;;;;;5135127;27;20011;-39
2022/05/18 13:03:02;;;;;;;1.75;0.73;;;28.30;38.00;;;;;;5134832;27;20031;-40
2022/05/18 13:05:40;;;;;;;3.30;0.70;;;28.30;38.00;;;;;;5135118;27;20466;-40
2022/05/18 13:08:18;;;;;;;2.25;1.00;;;28.30;38.00;;;;;;5134842;27;20491;-39
2022/05/18 13:11:19;;;;;;;3.08;0.93;;;28.30;38.00;;;;;;5135310;27;20535;-41
2022/05/18 13:14:00;;;;;;;3.15;0.70;;;28.30;38.10;;;;;;5091333;27;20069;-39
2022/05/18 13:16:38;;;;;;;2.55;0.70;;;28.30;38.10;;;;;;5134648;28;20092;-42
2022/05/18 13:19:13;;;;;;;1.98;0.70;;;28.30;38.20;;;;;;5134331;28;20533;-39